createdAt,value
2018-03-30T00:00:20.799Z,20.74
2018-03-30T00:01:20.816Z,20.85
2018-03-30T00:02:20.858Z,20.77
2018-03-30T00:03:20.728Z,20.71
2018-03-30T00:04:20.864Z,20.83
2018-03-30T00:05:20.764Z,20.74
2018-03-30T00:06:20.783Z,20.74
2018-03-30T00:07:20.936Z,20.77
2018-03-30T00:08:20.800Z,20.78
2018-03-30T00:09:20.827Z,20.83
2018-03-30T00:10:20.965Z,20.78
2018-03-30T00:11:20.978Z,20.83
2018-03-30T00:12:21.144Z,20.78
2018-03-30T00:13:21.011Z,20.82
2018-03-30T00:14:21.025Z,20.78
2018-03-30T00:15:20.920Z,20.83
2018-03-30T00:16:21.062Z,20.80
2018-03-30T00:17:21.175Z,20.78
2018-03-30T00:18:21.092Z,20.71
2018-03-30T00:19:21.107Z,20.77
2018-03-30T00:20:20.990Z,20.83
2018-03-30T00:21:21.144Z,20.73
2018-03-30T00:22:21.140Z,20.78
2018-03-30T00:23:21.047Z,20.78
2018-03-30T00:24:21.072Z,20.80
2018-03-30T00:25:21.079Z,20.78
2018-03-30T00:26:21.101Z,20.75
2018-03-30T00:27:21.213Z,20.78
2018-03-30T00:28:21.135Z,20.74
2018-03-30T00:29:21.141Z,20.73
2018-03-30T00:30:21.163Z,20.70
2018-03-30T00:31:21.302Z,20.73
2018-03-30T00:32:21.467Z,20.63
2018-03-30T00:33:21.213Z,20.70
2018-03-30T00:34:21.255Z,20.70
2018-03-30T00:35:21.368Z,20.77
2018-03-30T00:36:21.256Z,20.67
2018-03-30T00:37:21.383Z,20.59
2018-03-30T00:38:21.294Z,20.71
2018-03-30T00:39:21.316Z,20.59
2018-03-30T00:40:21.329Z,20.68
2018-03-30T00:41:21.338Z,20.66
2018-03-30T00:42:21.457Z,20.58
2018-03-30T00:43:21.371Z,20.64
2018-03-30T00:44:21.512Z,20.59
2018-03-30T00:45:21.406Z,20.70
2018-03-30T00:46:21.418Z,20.74
2018-03-30T00:47:21.664Z,20.67
2018-03-30T00:48:21.452Z,20.59
2018-03-30T00:49:21.487Z,20.64
2018-03-30T00:50:21.485Z,20.67
2018-03-30T00:51:21.512Z,20.70
2018-03-30T00:52:21.616Z,20.60
2018-03-30T00:53:21.660Z,20.67
2018-03-30T00:54:21.548Z,20.60
2018-03-30T00:55:21.570Z,20.68
2018-03-30T00:56:21.578Z,20.58
2018-03-30T00:57:21.725Z,20.60
2018-03-30T00:58:21.845Z,20.66
2018-03-30T00:59:21.623Z,20.63
2018-03-30T01:00:21.652Z,20.66
2018-03-30T01:01:21.660Z,20.59
2018-03-30T01:02:21.807Z,20.64
2018-03-30T01:03:21.842Z,20.60
2018-03-30T01:04:21.709Z,20.67
2018-03-30T01:05:21.732Z,20.64
2018-03-30T01:06:21.867Z,20.64
2018-03-30T01:07:21.883Z,20.60
2018-03-30T01:08:21.780Z,20.74
2018-03-30T01:09:21.891Z,20.64
2018-03-30T01:10:21.931Z,20.71
2018-03-30T01:11:21.830Z,20.70
2018-03-30T01:12:21.845Z,20.68
2018-03-30T01:13:21.979Z,20.70
2018-03-30T01:14:22.033Z,20.63
2018-03-30T01:15:21.885Z,20.66
2018-03-30T01:16:21.920Z,20.63
2018-03-30T01:17:21.910Z,20.67
2018-03-30T01:18:21.944Z,20.73
2018-03-30T01:19:22.064Z,20.74
2018-03-30T01:20:22.095Z,20.71
2018-03-30T01:21:21.990Z,20.68
2018-03-30T01:22:22.124Z,20.70
2018-03-30T01:23:22.143Z,20.70
2018-03-30T01:24:22.133Z,20.60
2018-03-30T01:25:22.174Z,20.70
2018-03-30T01:26:22.191Z,20.71
2018-03-30T01:27:22.207Z,20.75
2018-03-30T01:28:22.097Z,20.78
2018-03-30T01:29:22.220Z,20.63
2018-03-30T01:30:22.126Z,20.74
2018-03-30T01:31:22.152Z,20.75
2018-03-30T01:32:22.177Z,20.60
2018-03-30T01:33:22.192Z,20.71
2018-03-30T01:34:22.293Z,20.71
2018-03-30T01:35:22.337Z,20.75
2018-03-30T01:36:22.234Z,20.73
2018-03-30T01:37:22.241Z,20.74
2018-03-30T01:38:22.387Z,20.74
2018-03-30T01:39:22.386Z,20.74
2018-03-30T01:40:22.299Z,20.71
2018-03-30T01:41:22.326Z,20.74
2018-03-30T01:42:22.323Z,20.73
2018-03-30T01:43:22.340Z,20.75
2018-03-30T01:44:22.467Z,20.85
2018-03-30T01:45:22.371Z,20.82
2018-03-30T01:46:22.517Z,20.74
2018-03-30T01:47:22.420Z,20.77
2018-03-30T01:48:22.428Z,20.88
2018-03-30T01:49:22.538Z,20.74
2018-03-30T01:50:22.459Z,20.85
2018-03-30T01:51:22.461Z,20.77
2018-03-30T01:52:22.612Z,20.83
2018-03-30T01:53:22.513Z,20.88
2018-03-30T01:54:22.616Z,20.92
2018-03-30T01:55:22.659Z,20.85
2018-03-30T01:56:22.564Z,20.88
2018-03-30T01:57:22.571Z,20.86
2018-03-30T01:58:22.711Z,20.92
2018-03-30T01:59:22.824Z,20.88
2018-03-30T02:00:22.628Z,20.88
2018-03-30T02:01:22.636Z,20.77
2018-03-30T02:02:22.772Z,20.88
2018-03-30T02:03:22.672Z,20.92
2018-03-30T02:04:22.806Z,20.90
2018-03-30T02:05:22.806Z,20.92
2018-03-30T02:06:22.713Z,20.89
2018-03-30T02:07:22.741Z,20.85
2018-03-30T02:08:22.871Z,20.85
2018-03-30T02:09:22.762Z,20.89
2018-03-30T02:10:22.886Z,20.74
2018-03-30T02:11:22.795Z,20.86
2018-03-30T02:12:22.959Z,20.78
2018-03-30T02:13:22.952Z,20.92
2018-03-30T02:14:22.857Z,20.92
2018-03-30T02:15:23.084Z,20.74
2018-03-30T02:16:22.884Z,20.88
2018-03-30T02:17:22.899Z,20.89
2018-03-30T02:18:22.902Z,20.82
2018-03-30T02:19:22.933Z,20.86
2018-03-30T02:20:23.168Z,20.86
2018-03-30T02:21:23.083Z,20.88
2018-03-30T02:22:22.973Z,20.93
2018-03-30T02:23:23.116Z,20.85
2018-03-30T02:24:23.132Z,20.83
2018-03-30T02:25:23.250Z,20.89
2018-03-30T02:26:23.047Z,20.86
2018-03-30T02:27:23.052Z,20.85
2018-03-30T02:28:23.067Z,20.85
2018-03-30T02:29:23.213Z,20.85
2018-03-30T02:30:23.199Z,20.93
2018-03-30T02:31:23.133Z,20.83
2018-03-30T02:32:23.264Z,20.92
2018-03-30T02:33:23.281Z,20.95
2018-03-30T02:34:23.171Z,20.90
2018-03-30T02:35:23.409Z,20.93
2018-03-30T02:36:23.330Z,20.92
2018-03-30T02:37:23.216Z,20.86
2018-03-30T02:38:23.360Z,20.83
2018-03-30T02:39:23.251Z,20.78
2018-03-30T02:40:23.495Z,20.86
2018-03-30T02:41:23.408Z,20.77
2018-03-30T02:42:23.300Z,20.77
2018-03-30T02:43:23.441Z,20.85
2018-03-30T02:44:23.345Z,20.77
2018-03-30T02:45:23.461Z,20.86
2018-03-30T02:46:23.374Z,20.78
2018-03-30T02:47:23.506Z,20.80
2018-03-30T02:48:23.396Z,20.78
2018-03-30T02:49:23.541Z,20.75
2018-03-30T02:50:23.657Z,20.71
2018-03-30T02:51:23.572Z,20.77
2018-03-30T02:52:23.471Z,20.77
2018-03-30T02:53:23.478Z,20.86
2018-03-30T02:54:23.504Z,20.88
2018-03-30T02:55:23.612Z,20.78
2018-03-30T02:56:23.656Z,20.77
2018-03-30T02:57:23.668Z,20.74
2018-03-30T02:58:23.686Z,20.80
2018-03-30T02:59:23.587Z,20.77
2018-03-30T03:00:23.716Z,20.75
2018-03-30T03:01:23.707Z,20.74
2018-03-30T03:02:23.749Z,20.83
2018-03-30T03:03:23.643Z,20.75
2018-03-30T03:04:23.783Z,20.74
2018-03-30T03:05:23.798Z,20.80
2018-03-30T03:06:23.914Z,20.75
2018-03-30T03:07:23.707Z,20.75
2018-03-30T03:08:23.719Z,20.74
2018-03-30T03:09:23.863Z,20.73
2018-03-30T03:10:23.752Z,20.71
2018-03-30T03:11:23.878Z,20.71
2018-03-30T03:12:23.910Z,20.74
2018-03-30T03:13:23.932Z,20.63
2018-03-30T03:14:23.829Z,20.78
2018-03-30T03:15:23.833Z,20.70
2018-03-30T03:16:23.979Z,20.70
2018-03-30T03:17:24.093Z,20.75
2018-03-30T03:18:24.007Z,20.71
2018-03-30T03:19:24.024Z,20.71
2018-03-30T03:20:23.908Z,20.70
2018-03-30T03:21:23.944Z,20.73
2018-03-30T03:22:24.049Z,20.74
2018-03-30T03:23:23.973Z,20.74
2018-03-30T03:24:24.105Z,20.60
2018-03-30T03:25:23.995Z,20.67
2018-03-30T03:26:24.136Z,20.66
2018-03-30T03:27:24.251Z,20.66
2018-03-30T03:28:24.168Z,20.67
2018-03-30T03:29:24.185Z,20.64
2018-03-30T03:30:24.075Z,20.63
2018-03-30T03:31:24.218Z,20.63
2018-03-30T03:32:24.220Z,20.60
2018-03-30T03:33:24.122Z,20.63
2018-03-30T03:34:24.264Z,20.59
2018-03-30T03:35:24.158Z,20.55
2018-03-30T03:36:24.168Z,20.56
2018-03-30T03:37:24.286Z,20.60
2018-03-30T03:38:24.200Z,20.60
2018-03-30T03:39:24.219Z,20.60
2018-03-30T03:40:24.238Z,20.58
2018-03-30T03:41:24.260Z,20.55
2018-03-30T03:42:24.496Z,20.52
2018-03-30T03:43:24.409Z,20.55
2018-03-30T03:44:24.426Z,20.63
2018-03-30T03:45:24.316Z,20.63
2018-03-30T03:46:24.338Z,20.63
2018-03-30T03:47:24.576Z,20.60
2018-03-30T03:48:24.368Z,20.56
2018-03-30T03:49:24.507Z,20.58
2018-03-30T03:50:24.402Z,20.63
2018-03-30T03:51:24.537Z,20.60
2018-03-30T03:52:24.554Z,20.63
2018-03-30T03:53:24.544Z,20.60
2018-03-30T03:54:24.465Z,20.60
2018-03-30T03:55:24.470Z,20.55
2018-03-30T03:56:24.496Z,20.63
2018-03-30T03:57:24.634Z,20.63
2018-03-30T03:58:24.751Z,20.64
2018-03-30T03:59:24.555Z,20.63
2018-03-30T04:00:24.572Z,20.60
2018-03-30T04:01:24.575Z,20.63
2018-03-30T04:02:24.600Z,20.58
2018-03-30T04:03:24.852Z,20.56
2018-03-30T04:04:24.750Z,20.60
2018-03-30T04:05:24.645Z,20.53
2018-03-30T04:06:24.781Z,20.60
2018-03-30T04:07:24.675Z,20.59
2018-03-30T04:08:24.810Z,20.56
2018-03-30T04:09:24.927Z,20.53
2018-03-30T04:10:24.718Z,20.52
2018-03-30T04:11:24.782Z,20.55
2018-03-30T04:12:24.877Z,20.58
2018-03-30T04:13:24.762Z,20.52
2018-03-30T04:14:25.006Z,20.49
2018-03-30T04:15:24.805Z,20.50
2018-03-30T04:16:24.813Z,20.36
2018-03-30T04:17:24.842Z,20.42
2018-03-30T04:18:24.971Z,20.42
2018-03-30T04:19:24.959Z,20.44
2018-03-30T04:20:25.004Z,20.37
2018-03-30T04:21:24.895Z,20.27
2018-03-30T04:22:24.915Z,20.30
2018-03-30T04:23:24.924Z,20.22
2018-03-30T04:24:25.043Z,20.30
2018-03-30T04:25:24.966Z,20.22
2018-03-30T04:26:24.976Z,20.24
2018-03-30T04:27:24.996Z,20.24
2018-03-30T04:28:25.021Z,20.17
2018-03-30T04:29:25.248Z,20.27
2018-03-30T04:30:25.052Z,20.26
2018-03-30T04:31:25.063Z,20.24
2018-03-30T04:32:25.195Z,20.26
2018-03-30T04:33:25.212Z,20.26
2018-03-30T04:34:25.200Z,20.26
2018-03-30T04:35:25.245Z,20.21
2018-03-30T04:36:25.260Z,20.24
2018-03-30T04:37:25.152Z,20.26
2018-03-30T04:38:25.292Z,20.26
2018-03-30T04:39:25.284Z,20.36
2018-03-30T04:40:25.324Z,20.18
2018-03-30T04:41:25.215Z,20.27
2018-03-30T04:42:25.359Z,20.29
2018-03-30T04:43:25.375Z,20.32
2018-03-30T04:44:25.360Z,20.30
2018-03-30T04:45:25.285Z,20.27
2018-03-30T04:46:25.293Z,20.29
2018-03-30T04:47:25.310Z,20.32
2018-03-30T04:48:25.460Z,20.29
2018-03-30T04:49:25.446Z,20.26
2018-03-30T04:50:25.486Z,20.42
2018-03-30T04:51:25.502Z,20.40
2018-03-30T04:52:25.390Z,20.39
2018-03-30T04:53:25.414Z,20.34
2018-03-30T04:54:25.522Z,20.42
2018-03-30T04:55:25.448Z,20.30
2018-03-30T04:56:25.580Z,20.37
2018-03-30T04:57:25.474Z,20.40
2018-03-30T04:58:25.610Z,20.40
2018-03-30T04:59:25.730Z,20.40
2018-03-30T05:00:25.516Z,20.32
2018-03-30T05:01:25.542Z,20.44
2018-03-30T05:02:25.676Z,20.46
2018-03-30T05:03:25.693Z,20.46
2018-03-30T05:04:25.583Z,20.39
2018-03-30T05:05:25.829Z,20.46
2018-03-30T05:06:25.741Z,20.34
2018-03-30T05:07:25.631Z,20.39
2018-03-30T05:08:25.775Z,20.37
2018-03-30T05:09:25.791Z,20.36
2018-03-30T05:10:25.904Z,20.32
2018-03-30T05:11:25.710Z,20.33
2018-03-30T05:12:25.719Z,20.29
2018-03-30T05:13:25.740Z,20.29
2018-03-30T05:14:25.877Z,20.29
2018-03-30T05:15:25.985Z,20.32
2018-03-30T05:16:25.782Z,20.29
2018-03-30T05:17:25.919Z,20.26
2018-03-30T05:18:25.932Z,20.34
2018-03-30T05:19:25.821Z,20.27
2018-03-30T05:20:25.967Z,20.29
2018-03-30T05:21:25.966Z,20.32
2018-03-30T05:22:25.872Z,20.29
2018-03-30T05:23:26.013Z,20.30
2018-03-30T05:24:26.029Z,20.24
2018-03-30T05:25:25.923Z,20.26
2018-03-30T05:26:26.049Z,20.24
2018-03-30T05:27:26.080Z,20.29
2018-03-30T05:28:25.974Z,20.27
2018-03-30T05:29:25.981Z,20.21
2018-03-30T05:30:25.999Z,20.15
2018-03-30T05:31:26.243Z,20.15
2018-03-30T05:32:26.030Z,20.17
2018-03-30T05:33:26.171Z,20.15
2018-03-30T05:34:26.189Z,20.17
2018-03-30T05:35:26.090Z,20.17
2018-03-30T05:36:26.325Z,20.11
2018-03-30T05:37:26.117Z,20.10
2018-03-30T05:38:26.250Z,20.07
2018-03-30T05:39:26.143Z,20.07
2018-03-30T05:40:26.159Z,20.03
2018-03-30T05:41:26.282Z,19.99
2018-03-30T05:42:26.190Z,20.04
2018-03-30T05:43:26.331Z,20.03
2018-03-30T05:44:26.346Z,20.02
2018-03-30T05:45:26.363Z,19.99
2018-03-30T05:46:26.350Z,20.03
2018-03-30T05:47:26.270Z,20.02
2018-03-30T05:48:26.296Z,20.07
2018-03-30T05:49:26.298Z,19.99
2018-03-30T05:50:26.441Z,20.08
2018-03-30T05:51:26.560Z,20.04
2018-03-30T05:52:26.476Z,20.00
2018-03-30T05:53:26.364Z,20.03
2018-03-30T05:54:26.502Z,20.11
2018-03-30T05:55:26.522Z,20.03
2018-03-30T05:56:26.512Z,19.97
2018-03-30T05:57:26.427Z,20.11
2018-03-30T05:58:26.567Z,20.04
2018-03-30T05:59:26.458Z,20.12
2018-03-30T06:00:26.601Z,20.07
2018-03-30T06:01:26.601Z,20.03
2018-03-30T06:02:26.632Z,20.03
2018-03-30T06:03:26.650Z,20.14
2018-03-30T06:04:26.663Z,20.07
2018-03-30T06:05:26.555Z,20.17
2018-03-30T06:06:26.675Z,20.17
2018-03-30T06:07:26.712Z,20.14
2018-03-30T06:08:26.597Z,20.22
2018-03-30T06:09:26.742Z,20.21
2018-03-30T06:10:26.628Z,20.17
2018-03-30T06:11:26.877Z,20.18
2018-03-30T06:12:26.788Z,20.12
2018-03-30T06:13:26.843Z,20.12
2018-03-30T06:14:26.705Z,20.11
2018-03-30T06:15:26.838Z,20.14
2018-03-30T06:16:27.001Z,20.02
2018-03-30T06:17:26.870Z,20.12
2018-03-30T06:18:26.769Z,20.03
2018-03-30T06:19:26.786Z,20.14
2018-03-30T06:20:26.918Z,20.04
2018-03-30T06:21:26.967Z,20.00
2018-03-30T06:22:26.822Z,20.02
2018-03-30T06:23:26.964Z,20.02
2018-03-30T06:24:26.859Z,20.00
2018-03-30T06:25:26.875Z,20.02
2018-03-30T06:26:27.109Z,20.00
2018-03-30T06:27:26.898Z,20.04
2018-03-30T06:28:26.914Z,20.02
2018-03-30T06:29:26.943Z,20.08
2018-03-30T06:30:26.960Z,20.00
2018-03-30T06:31:27.105Z,20.03
2018-03-30T06:32:26.992Z,19.97
2018-03-30T06:33:26.998Z,19.93
2018-03-30T06:34:27.134Z,19.97
2018-03-30T06:35:27.021Z,19.93
2018-03-30T06:36:27.320Z,19.99
2018-03-30T06:37:27.064Z,19.85
2018-03-30T06:38:27.072Z,19.87
2018-03-30T06:39:27.096Z,19.85
2018-03-30T06:40:27.111Z,19.87
2018-03-30T06:41:27.400Z,19.82
2018-03-30T06:42:27.263Z,19.87
2018-03-30T06:43:27.152Z,19.85
2018-03-30T06:44:27.172Z,19.81
2018-03-30T06:45:27.310Z,19.84
2018-03-30T06:46:27.312Z,19.81
2018-03-30T06:47:27.225Z,19.82
2018-03-30T06:48:27.358Z,19.72
2018-03-30T06:49:27.373Z,19.79
2018-03-30T06:50:27.387Z,19.79
2018-03-30T06:51:27.552Z,19.78
2018-03-30T06:52:27.300Z,19.78
2018-03-30T06:53:27.309Z,19.71
2018-03-30T06:54:27.450Z,19.71
2018-03-30T06:55:27.465Z,19.77
2018-03-30T06:56:27.456Z,19.79
2018-03-30T06:57:27.379Z,19.77
2018-03-30T06:58:27.388Z,19.67
2018-03-30T06:59:27.404Z,19.63
2018-03-30T07:00:27.431Z,19.70
2018-03-30T07:01:27.548Z,19.63
2018-03-30T07:02:27.466Z,19.63
2018-03-30T07:03:27.594Z,19.60
2018-03-30T07:04:27.611Z,19.62
2018-03-30T07:05:27.505Z,19.72
2018-03-30T07:06:27.662Z,19.71
2018-03-30T07:07:27.536Z,19.71
2018-03-30T07:08:27.671Z,19.74
2018-03-30T07:09:27.574Z,19.70
2018-03-30T07:10:27.702Z,19.79
2018-03-30T07:11:27.594Z,19.77
2018-03-30T07:12:27.836Z,19.70
2018-03-30T07:13:27.754Z,19.74
2018-03-30T07:14:27.663Z,19.78
2018-03-30T07:15:27.652Z,19.74
2018-03-30T07:16:27.677Z,19.81
2018-03-30T07:17:27.791Z,19.75
2018-03-30T07:18:27.826Z,19.70
2018-03-30T07:19:27.716Z,19.84
2018-03-30T07:20:27.741Z,19.79
2018-03-30T07:21:27.746Z,19.71
2018-03-30T07:22:27.922Z,19.72
2018-03-30T07:23:27.780Z,19.75
2018-03-30T07:24:27.799Z,19.74
2018-03-30T07:25:27.823Z,19.72
2018-03-30T07:26:27.840Z,19.85
2018-03-30T07:27:28.013Z,19.77
2018-03-30T07:28:27.855Z,19.90
2018-03-30T07:29:28.002Z,19.81
2018-03-30T07:30:27.890Z,19.72
2018-03-30T07:31:27.907Z,19.85
2018-03-30T07:32:28.072Z,19.79
2018-03-30T07:33:27.944Z,19.82
2018-03-30T07:34:27.952Z,19.84
2018-03-30T07:35:27.975Z,19.87
2018-03-30T07:36:27.983Z,19.85
2018-03-30T07:37:28.276Z,19.82
2018-03-30T07:38:28.012Z,19.90
2018-03-30T07:39:28.045Z,19.85
2018-03-30T07:40:28.049Z,19.82
2018-03-30T07:41:28.188Z,19.89
2018-03-30T07:42:28.241Z,19.93
2018-03-30T07:43:28.221Z,19.84
2018-03-30T07:44:28.111Z,19.81
2018-03-30T07:45:28.129Z,20.00
2018-03-30T07:46:28.139Z,19.97
2018-03-30T07:47:28.264Z,19.85
2018-03-30T07:48:28.298Z,19.89
2018-03-30T07:49:28.196Z,19.84
2018-03-30T07:50:28.223Z,19.89
2018-03-30T07:51:28.345Z,19.93
2018-03-30T07:52:28.392Z,19.93
2018-03-30T07:53:28.252Z,19.97
2018-03-30T07:54:28.392Z,19.94
2018-03-30T07:55:28.282Z,19.96
2018-03-30T07:56:28.424Z,19.96
2018-03-30T07:57:28.414Z,19.89
2018-03-30T07:58:28.343Z,19.94
2018-03-30T07:59:28.354Z,19.85
2018-03-30T08:00:28.489Z,19.94
2018-03-30T08:01:28.375Z,19.96
2018-03-30T08:02:28.490Z,19.92
2018-03-30T08:03:28.421Z,19.93
2018-03-30T08:04:28.425Z,19.90
2018-03-30T08:05:28.567Z,20.03
2018-03-30T08:06:28.456Z,19.92
2018-03-30T08:07:28.583Z,19.93
2018-03-30T08:08:28.614Z,19.96
2018-03-30T08:09:28.508Z,19.84
2018-03-30T08:10:28.526Z,19.96
2018-03-30T08:11:28.663Z,19.93
2018-03-30T08:12:28.777Z,19.97
2018-03-30T08:13:28.692Z,19.90
2018-03-30T08:14:28.590Z,19.96
2018-03-30T08:15:28.598Z,19.94
2018-03-30T08:16:28.612Z,19.87
2018-03-30T08:17:28.737Z,20.02
2018-03-30T08:18:28.657Z,19.94
2018-03-30T08:19:28.668Z,19.93
2018-03-30T08:20:28.806Z,20.00
2018-03-30T08:21:28.694Z,19.93
2018-03-30T08:22:28.721Z,19.93
2018-03-30T08:23:28.832Z,19.99
2018-03-30T08:24:28.740Z,20.00
2018-03-30T08:25:28.884Z,19.93
2018-03-30T08:26:28.897Z,19.96
2018-03-30T08:27:28.914Z,19.94
2018-03-30T08:28:28.965Z,19.96
2018-03-30T08:29:28.948Z,19.96
2018-03-30T08:30:28.960Z,19.97
2018-03-30T08:31:28.846Z,19.90
2018-03-30T08:32:28.995Z,19.96
2018-03-30T08:33:28.999Z,19.94
2018-03-30T08:34:29.026Z,19.93
2018-03-30T08:35:28.910Z,19.96
2018-03-30T08:36:29.056Z,19.94
2018-03-30T08:37:28.946Z,19.94
2018-03-30T08:38:29.074Z,19.94
2018-03-30T08:39:28.974Z,19.87
2018-03-30T08:40:29.117Z,19.90
2018-03-30T08:41:29.138Z,19.94
2018-03-30T08:42:29.149Z,19.94
2018-03-30T08:43:29.320Z,20.02
2018-03-30T08:44:29.184Z,19.96
2018-03-30T08:45:29.082Z,19.92
2018-03-30T08:46:29.089Z,19.90
2018-03-30T08:47:29.235Z,19.92
2018-03-30T08:48:29.345Z,19.93
2018-03-30T08:49:29.262Z,19.96
2018-03-30T08:50:29.157Z,19.97
2018-03-30T08:51:29.292Z,19.93
2018-03-30T08:52:29.311Z,20.00
2018-03-30T08:53:29.306Z,19.94
2018-03-30T08:54:29.226Z,19.96
2018-03-30T08:55:29.357Z,19.93
2018-03-30T08:56:29.370Z,19.96
2018-03-30T08:57:29.273Z,19.93
2018-03-30T08:58:29.374Z,19.90
2018-03-30T08:59:29.418Z,19.94
2018-03-30T09:00:29.316Z,19.82
2018-03-30T09:01:29.324Z,19.89
2018-03-30T09:02:29.465Z,19.84
2018-03-30T09:03:29.454Z,19.89
2018-03-30T09:04:29.498Z,19.84
2018-03-30T09:05:29.395Z,19.84
2018-03-30T09:06:29.527Z,19.85
2018-03-30T09:07:29.543Z,19.81
2018-03-30T09:08:29.457Z,19.81
2018-03-30T09:09:29.563Z,19.81
2018-03-30T09:10:29.589Z,19.81
2018-03-30T09:11:29.489Z,19.82
2018-03-30T09:12:29.496Z,19.87
2018-03-30T09:13:29.638Z,19.81
2018-03-30T09:14:29.753Z,19.87
2018-03-30T09:15:29.551Z,19.77
2018-03-30T09:16:29.689Z,19.81
2018-03-30T09:17:29.704Z,19.78
2018-03-30T09:18:29.715Z,19.87
2018-03-30T09:19:29.762Z,19.82
2018-03-30T09:20:29.762Z,19.81
2018-03-30T09:21:29.763Z,19.81
2018-03-30T09:22:29.657Z,19.82
2018-03-30T09:23:29.794Z,19.82
2018-03-30T09:24:29.696Z,19.79
2018-03-30T09:25:29.977Z,19.82
2018-03-30T09:26:29.728Z,19.85
2018-03-30T09:27:29.731Z,19.82
2018-03-30T09:28:29.754Z,19.97
2018-03-30T09:29:29.764Z,19.96
2018-03-30T09:30:30.005Z,19.97
2018-03-30T09:31:29.792Z,19.96
2018-03-30T09:32:29.840Z,19.94
2018-03-30T09:33:29.955Z,19.96
2018-03-30T09:34:29.851Z,19.93
2018-03-30T09:35:30.083Z,20.02
2018-03-30T09:36:29.885Z,20.00
2018-03-30T09:37:30.018Z,20.07
2018-03-30T09:38:29.918Z,20.18
2018-03-30T09:39:29.919Z,20.24
2018-03-30T09:40:30.038Z,20.24
2018-03-30T09:41:30.079Z,20.40
2018-03-30T09:42:29.968Z,20.37
2018-03-30T09:43:29.986Z,20.49
2018-03-30T09:44:30.126Z,20.49
2018-03-30T09:45:30.244Z,20.52
2018-03-30T09:46:30.158Z,20.50
2018-03-30T09:47:30.174Z,20.42
2018-03-30T09:48:30.072Z,20.46
2018-03-30T09:49:30.211Z,20.48
2018-03-30T09:50:30.210Z,20.33
2018-03-30T09:51:30.117Z,20.50
2018-03-30T09:52:30.135Z,20.40
2018-03-30T09:53:30.274Z,20.46
2018-03-30T09:54:30.163Z,20.48
2018-03-30T09:55:30.286Z,20.53
2018-03-30T09:56:30.193Z,20.55
2018-03-30T09:57:30.338Z,20.50
2018-03-30T09:58:30.355Z,20.63
2018-03-30T09:59:30.248Z,20.60
2018-03-30T10:00:30.414Z,20.66
2018-03-30T10:01:30.291Z,20.63
2018-03-30T10:02:30.306Z,20.59
2018-03-30T10:03:30.318Z,20.68
2018-03-30T10:04:30.327Z,20.70
2018-03-30T10:05:30.573Z,20.66
2018-03-30T10:06:30.360Z,20.78
2018-03-30T10:07:30.384Z,20.64
2018-03-30T10:08:30.394Z,20.74
2018-03-30T10:09:30.409Z,20.71
2018-03-30T10:10:30.533Z,20.73
2018-03-30T10:11:30.570Z,20.73
2018-03-30T10:12:30.458Z,20.73
2018-03-30T10:13:30.486Z,20.71
2018-03-30T10:14:30.506Z,20.78
2018-03-30T10:15:30.620Z,20.78
2018-03-30T10:16:30.529Z,20.78
2018-03-30T10:17:30.672Z,20.80
2018-03-30T10:18:30.564Z,20.74
2018-03-30T10:19:30.568Z,20.85
2018-03-30T10:20:30.605Z,20.92
2018-03-30T10:21:30.885Z,20.88
2018-03-30T10:22:30.626Z,20.89
2018-03-30T10:23:30.640Z,20.83
2018-03-30T10:24:30.692Z,20.88
2018-03-30T10:25:30.804Z,20.88
2018-03-30T10:26:30.802Z,20.93
2018-03-30T10:27:30.710Z,20.86
2018-03-30T10:28:30.724Z,20.90
2018-03-30T10:29:30.748Z,20.90
2018-03-30T10:30:30.763Z,20.93
2018-03-30T10:31:30.782Z,20.93
2018-03-30T10:32:30.892Z,20.95
2018-03-30T10:33:30.816Z,20.96
2018-03-30T10:34:30.823Z,20.98
2018-03-30T10:35:30.850Z,20.96
2018-03-30T10:36:30.983Z,20.95
2018-03-30T10:37:30.979Z,20.93
2018-03-30T10:38:30.904Z,20.90
2018-03-30T10:39:31.036Z,20.98
2018-03-30T10:40:31.054Z,20.93
2018-03-30T10:41:31.068Z,20.98
2018-03-30T10:42:31.234Z,20.92
2018-03-30T10:43:31.023Z,20.93
2018-03-30T10:44:31.119Z,20.98
2018-03-30T10:45:31.009Z,21.04
2018-03-30T10:46:31.035Z,21.07
2018-03-30T10:47:31.272Z,21.13
2018-03-30T10:48:31.063Z,21.07
2018-03-30T10:49:31.091Z,21.17
2018-03-30T10:50:31.094Z,21.17
2018-03-30T10:51:31.117Z,21.19
2018-03-30T10:52:31.355Z,21.28
2018-03-30T10:53:31.271Z,21.48
2018-03-30T10:54:31.287Z,21.62
2018-03-30T10:55:31.189Z,21.78
2018-03-30T10:56:31.203Z,21.75
2018-03-30T10:57:31.326Z,21.83
2018-03-30T10:58:31.356Z,21.99
2018-03-30T10:59:31.260Z,22.10
2018-03-30T11:00:31.392Z,22.18
2018-03-30T11:01:31.417Z,22.43
2018-03-30T11:02:31.468Z,22.52
2018-03-30T11:03:31.318Z,22.71
2018-03-30T11:04:31.343Z,23.16
2018-03-30T11:05:31.353Z,23.44
2018-03-30T11:06:31.379Z,23.69
2018-03-30T11:07:31.619Z,24.14
2018-03-30T11:08:31.535Z,24.48
2018-03-30T11:09:31.557Z,24.66
2018-03-30T11:10:31.454Z,24.93
2018-03-30T11:11:31.480Z,25.16
2018-03-30T11:12:31.714Z,25.40
2018-03-30T11:13:31.631Z,25.62
2018-03-30T11:14:31.649Z,25.92
2018-03-30T11:15:31.544Z,25.99
2018-03-30T11:16:31.568Z,26.03
2018-03-30T11:17:31.691Z,26.03
2018-03-30T11:18:31.603Z,26.16
2018-03-30T11:19:31.624Z,26.15
2018-03-30T11:20:31.657Z,26.24
2018-03-30T11:21:31.668Z,26.31
2018-03-30T11:22:31.798Z,26.42
2018-03-30T11:23:31.713Z,26.52
2018-03-30T11:24:31.728Z,26.67
2018-03-30T11:25:31.747Z,26.78
2018-03-30T11:26:31.768Z,26.67
2018-03-30T11:27:31.942Z,26.76
2018-03-30T11:28:31.819Z,26.78
2018-03-30T11:29:31.963Z,26.83
2018-03-30T11:30:31.980Z,26.92
2018-03-30T11:31:32.005Z,26.98
2018-03-30T11:32:32.225Z,27.00
2018-03-30T11:33:31.933Z,27.10
2018-03-30T11:34:31.938Z,27.18
2018-03-30T11:35:32.086Z,27.22
2018-03-30T11:36:32.109Z,27.22
2018-03-30T11:37:32.102Z,27.23
2018-03-30T11:38:32.038Z,27.26
2018-03-30T11:39:32.058Z,27.10
2018-03-30T11:40:32.076Z,27.20
2018-03-30T11:41:32.089Z,27.29
2018-03-30T11:42:32.212Z,27.41
2018-03-30T11:43:32.259Z,27.61
2018-03-30T11:44:32.158Z,27.60
2018-03-30T11:45:32.302Z,27.66
2018-03-30T11:46:32.325Z,27.66
2018-03-30T11:47:32.495Z,27.63
2018-03-30T11:48:32.248Z,27.66
2018-03-30T11:49:32.389Z,27.58
2018-03-30T11:50:32.419Z,27.60
2018-03-30T11:51:32.432Z,27.57
2018-03-30T11:52:32.555Z,27.44
2018-03-30T11:53:32.473Z,27.48
2018-03-30T11:54:32.368Z,27.44
2018-03-30T11:55:32.388Z,27.45
2018-03-30T11:56:32.415Z,27.38
2018-03-30T11:57:32.616Z,27.20
2018-03-30T11:58:32.455Z,27.10
2018-03-30T11:59:32.602Z,27.04
2018-03-30T12:00:32.505Z,27.10
2018-03-30T12:01:32.521Z,27.05
2018-03-30T12:02:32.819Z,27.07
2018-03-30T12:03:32.564Z,27.08
2018-03-30T12:04:32.711Z,27.07
2018-03-30T12:05:32.616Z,27.07
2018-03-30T12:06:32.641Z,27.05
2018-03-30T12:07:32.758Z,26.93
2018-03-30T12:08:32.801Z,26.76
2018-03-30T12:10:32.843Z,26.82
2018-03-30T12:11:32.745Z,26.71
2018-03-30T12:12:32.754Z,26.51
2018-03-30T12:13:32.928Z,26.51
2018-03-30T12:14:32.926Z,26.42
2018-03-30T12:15:32.836Z,26.37
2018-03-30T12:16:32.843Z,26.27
2018-03-30T12:17:32.879Z,26.26
2018-03-30T12:18:33.115Z,26.11
2018-03-30T12:19:33.037Z,26.01
2018-03-30T12:20:32.937Z,26.07
2018-03-30T12:21:32.963Z,26.04
2018-03-30T12:22:32.973Z,26.04
2018-03-30T12:23:33.217Z,25.95
2018-03-30T12:24:33.020Z,26.01
2018-03-30T12:25:33.041Z,25.98
2018-03-30T12:26:33.179Z,26.03
2018-03-30T12:27:33.085Z,26.01
2018-03-30T12:28:33.322Z,26.10
2018-03-30T12:29:33.117Z,26.07
2018-03-30T12:30:33.144Z,26.22
2018-03-30T12:31:33.157Z,26.18
2018-03-30T12:32:33.178Z,26.30
2018-03-30T12:33:33.426Z,26.52
2018-03-30T12:34:33.220Z,26.51
2018-03-30T12:35:33.367Z,26.51
2018-03-30T12:36:33.386Z,26.73
2018-03-30T12:37:33.412Z,26.67
2018-03-30T12:38:33.528Z,26.74
2018-03-30T12:39:33.451Z,26.82
2018-03-30T12:40:33.469Z,26.73
2018-03-30T12:41:33.494Z,26.85
2018-03-30T12:42:33.511Z,26.82
2018-03-30T12:43:33.684Z,26.92
2018-03-30T12:44:33.424Z,26.91
2018-03-30T12:45:33.572Z,26.89
2018-03-30T12:46:33.465Z,26.88
2018-03-30T12:47:33.613Z,26.96
2018-03-30T12:48:33.514Z,26.91
2018-03-30T12:49:33.758Z,27.01
2018-03-30T12:50:33.554Z,27.05
2018-03-30T12:51:33.568Z,27.08
2018-03-30T12:52:33.587Z,27.25
2018-03-30T12:53:33.743Z,27.22